Time;durP1;ratioP1;P1;durP2;ratioP2;P2;SDS_P1;SDS_P2;PMS_P1;PMS_P2;Temp;Humidity;BMP_temperature;BMP_pressure;BME280_temperature;BME280_humidity;BME280_pressure;Samples;Min_cycle;Max_cycle;Signal;HPM_P1;HPM_P2
2024/01/16 00:00:16;;;;;;;;;;;;;;;18.24;58.59;97474.03;2086913;28;20410;-66
2024/01/16 00:01:18;;;;;;;;;;;;;;;18.24;58.74;97478.59;2084214;28;19928;-66
2024/01/16 00:02:19;;;;;;;;;;;;;;;18.24;58.75;97470.56;2087195;28;20024;-65
2024/01/16 00:03:20;;;;;;;;;;;;;;;18.24;58.74;97478.59;2086723;28;19933;-66
2024/01/16 00:04:21;;;;;;;;;;;;;;;18.20;58.79;97477.44;2086768;28;20019;-65
2024/01/16 00:05:22;;;;;;;;;;;;;;;18.22;58.69;97472.63;2089054;28;19932;-66
2024/01/16 00:06:24;;;;;;;;;;;;;;;18.21;58.51;97481.75;2086484;28;19998;-65
2024/01/16 00:07:24;;;;;;;;;;;;;;;18.21;58.66;97481.75;2072460;28;19990;-66
2024/01/16 00:08:27;;;;;;;;;;;;;;;18.20;58.70;97480.13;2083442;28;19932;-66
2024/01/16 00:09:28;;;;;;;;;;;;;;;18.21;58.48;97484.44;2083794;28;20027;-66
2024/01/16 00:10:29;;;;;;;;;;;;;;;18.19;58.77;97475.78;2083875;28;21783;-66
2024/01/16 00:11:31;;;;;;;;;;;;;;;18.19;58.59;97484.69;2088637;28;19936;-65
2024/01/16 00:12:31;;;;;;;;;;;;;;;18.17;58.82;97480.59;2086731;28;20537;-65
2024/01/16 00:13:33;;;;;;;;;;;;;;;18.14;58.93;97484.53;2085779;28;19928;-66
2024/01/16 00:14:36;;;;;;;;;;;;;;;18.14;58.81;97484.53;2087889;28;20011;-66
2024/01/16 00:15:36;;;;;;;;;;;;;;;18.15;58.71;97488.03;2084089;28;19928;-66
2024/01/16 00:16:42;;;;;;;;;;;;;;;18.09;58.75;97487.91;2085933;28;19929;-66
2024/01/16 00:17:43;;;;;;;;;;;;;;;18.10;58.90;97480.66;2084189;28;20307;-66
2024/01/16 00:18:45;;;;;;;;;;;;;;;18.11;58.63;97492.19;2086222;28;20007;-66
2024/01/16 00:19:45;;;;;;;;;;;;;;;18.10;59.00;97483.34;2087443;28;19932;-66
2024/01/16 00:20:47;;;;;;;;;;;;;;;18.10;58.91;97488.72;2085364;28;20479;-66
2024/01/16 00:21:47;;;;;;;;;;;;;;;18.09;58.88;97495.94;2087531;28;19928;-66
2024/01/16 00:22:49;;;;;;;;;;;;;;;18.06;58.95;97490.22;2088594;28;20456;-66
2024/01/16 00:23:51;;;;;;;;;;;;;;;18.06;58.63;97496.41;2088286;28;19993;-65
2024/01/16 00:24:52;;;;;;;;;;;;;;;18.05;58.77;97493.94;2086414;28;19968;-66
2024/01/16 00:25:53;;;;;;;;;;;;;;;18.05;59.05;97492.09;2085857;28;20792;-66
2024/01/16 00:26:54;;;;;;;;;;;;;;;18.03;59.08;97491.50;2085181;28;20463;-66
2024/01/16 00:27:55;;;;;;;;;;;;;;;18.04;58.95;97492.31;2086815;28;20068;-65
2024/01/16 00:28:56;;;;;;;;;;;;;;;18.04;58.94;97485.06;2086786;28;19939;-66
2024/01/16 00:29:58;;;;;;;;;;;;;;;18.02;58.75;97495.19;2085207;28;20024;-66
2024/01/16 00:30:58;;;;;;;;;;;;;;;18.03;58.84;97494.19;2085535;28;19936;-66
2024/01/16 00:31:59;;;;;;;;;;;;;;;18.03;58.97;97490.69;2086411;28;19963;-65
2024/01/16 00:33:00;;;;;;;;;;;;;;;18.00;58.83;97485.78;2088588;28;20050;-66
2024/01/16 00:34:01;;;;;;;;;;;;;;;18.00;59.05;97489.28;2083966;28;19932;-65
2024/01/16 00:35:01;;;;;;;;;;;;;;;17.96;59.07;97493.44;2084767;28;20020;-66
2024/01/16 00:36:03;;;;;;;;;;;;;;;17.96;59.09;97493.44;2087437;28;19963;-66
2024/01/16 00:37:04;;;;;;;;;;;;;;;17.96;58.94;97493.44;2087127;28;20307;-66
2024/01/16 00:38:05;;;;;;;;;;;;;;;17.97;58.99;97497.78;2086789;28;20031;-66
2024/01/16 00:39:08;;;;;;;;;;;;;;;17.95;59.16;97499.84;2082972;28;19932;-65
2024/01/16 00:40:09;;;;;;;;;;;;;;;17.95;59.06;97497.19;2085653;28;19959;-66
2024/01/16 00:41:10;;;;;;;;;;;;;;;17.93;58.96;97493.88;2086333;28;19939;-65
2024/01/16 00:42:12;;;;;;;;;;;;;;;17.92;58.93;97497.63;2087162;28;20047;-66
2024/01/16 00:43:12;;;;;;;;;;;;;;;17.92;59.13;97494.94;2086799;28;19955;-65
2024/01/16 00:44:14;;;;;;;;;;;;;;;17.91;59.21;97495.97;2088142;28;20007;-66
2024/01/16 00:45:16;;;;;;;;;;;;;;;17.91;58.97;97495.97;2085526;28;19928;-66
2024/01/16 00:46:18;;;;;;;;;;;;;;;17.89;59.01;97503.44;2087423;28;20331;-66
2024/01/16 00:47:19;;;;;;;;;;;;;;;17.88;59.24;97501.78;2075510;28;19933;-65
2024/01/16 00:48:20;;;;;;;;;;;;;;;17.86;59.00;97504.72;2083318;28;20688;-65
2024/01/16 00:49:21;;;;;;;;;;;;;;;17.85;59.19;97502.25;2087532;28;19935;-66
2024/01/16 00:50:24;;;;;;;;;;;;;;;17.84;59.20;97504.13;2084771;28;19928;-65
2024/01/16 00:51:25;;;;;;;;;;;;;;;17.85;58.98;97510.28;2085954;28;19928;-66
2024/01/16 00:52:27;;;;;;;;;;;;;;;17.83;59.04;97505.16;2088542;28;19931;-66
2024/01/16 00:53:27;;;;;;;;;;;;;;;17.84;59.35;97512.16;2085721;28;20693;-66
2024/01/16 00:54:31;;;;;;;;;;;;;;;17.84;59.18;97509.47;2087481;28;19967;-66
2024/01/16 00:55:31;;;;;;;;;;;;;;;17.84;59.16;97512.16;2088447;28;20051;-66
2024/01/16 00:56:34;;;;;;;;;;;;;;;17.85;58.97;97510.28;2084927;28;19951;-66
2024/01/16 00:57:34;;;;;;;;;;;;;;;17.83;58.90;97512.41;2085440;28;20547;-66
2024/01/16 00:58:36;;;;;;;;;;;;;;;17.83;58.92;97515.09;2085909;28;20372;-65
2024/01/16 00:59:37;;;;;;;;;;;;;;;17.80;59.45;97515.50;2087216;28;20485;-66
2024/01/16 01:00:38;;;;;;;;;;;;;;;17.79;59.22;97516.56;2090001;28;19964;-66
2024/01/16 01:01:39;;;;;;;;;;;;;;;17.77;59.33;97514.06;2085179;28;19932;-66
2024/01/16 01:02:40;;;;;;;;;;;;;;;17.79;59.20;97513.88;2088158;28;19968;-66
2024/01/16 01:03:41;;;;;;;;;;;;;;;17.79;58.96;97516.56;2086670;28;20442;-66
2024/01/16 01:04:42;;;;;;;;;;;;;;;17.76;59.26;97517.81;2086208;28;19925;-65
2024/01/16 01:05:44;;;;;;;;;;;;;;;17.78;59.10;97517.59;2086521;28;19975;-66
2024/01/16 01:06:45;;;;;;;;;;;;;;;17.77;59.13;97518.63;2084783;28;19929;-66
2024/01/16 01:07:46;;;;;;;;;;;;;;;17.76;59.24;97522.34;2085160;28;20421;-66
2024/01/16 01:08:47;;;;;;;;;;;;;;;17.76;59.25;97525.84;2083790;28;19929;-66
2024/01/16 01:09:49;;;;;;;;;;;;;;;17.76;59.34;97517.00;2083631;28;19956;-66
2024/01/16 01:10:50;;;;;;;;;;;;;;;17.74;59.23;97522.56;2086780;28;19929;-66
2024/01/16 01:11:51;;;;;;;;;;;;;;;17.73;58.94;97523.63;2087364;28;20998;-66
2024/01/16 01:12:53;;;;;;;;;;;;;;;17.72;59.23;97522.00;2090666;28;20011;-66
2024/01/16 01:13:54;;;;;;;;;;;;;;;17.72;58.92;97518.47;2085183;28;19933;-66
2024/01/16 01:14:54;;;;;;;;;;;;;;;17.71;59.06;97519.53;2082170;28;19932;-66
2024/01/16 01:15:56;;;;;;;;;;;;;;;17.71;59.21;97520.34;2085432;28;20423;-66
2024/01/16 01:16:56;;;;;;;;;;;;;;;17.70;59.38;97524.06;2085275;28;19928;-66
2024/01/16 01:17:58;;;;;;;;;;;;;;;17.70;59.25;97525.94;2085202;28;20019;-66
2024/01/16 01:18:59;;;;;;;;;;;;;;;17.68;59.29;97525.34;2086050;28;19928;-66
2024/01/16 01:20:00;;;;;;;;;;;;;;;17.70;59.47;97531.31;2085895;28;19932;-66
2024/01/16 01:21:01;;;;;;;;;;;;;;;17.68;59.46;97526.16;2088531;28;20391;-65
2024/01/16 01:22:02;;;;;;;;;;;;;;;17.68;59.07;97536.06;2090295;28;20039;-67
2024/01/16 01:23:03;;;;;;;;;;;;;;;17.67;59.24;97532.56;2088161;28;19928;-65
2024/01/16 01:24:04;;;;;;;;;;;;;;;17.69;59.01;97537.69;2088080;28;20023;-66
2024/01/16 01:25:08;;;;;;;;;;;;;;;17.67;59.27;97539.81;2088612;28;19928;-65
2024/01/16 01:26:08;;;;;;;;;;;;;;;17.65;59.20;97537.31;2081892;28;19936;-66
2024/01/16 01:27:10;;;;;;;;;;;;;;;17.64;59.04;97536.50;2086271;28;20007;-65
2024/01/16 01:28:11;;;;;;;;;;;;;;;17.64;59.30;97544.56;2083887;28;20684;-65
2024/01/16 01:29:12;;;;;;;;;;;;;;;17.63;59.21;97540.25;2085577;28;20470;-65
2024/01/16 01:30:13;;;;;;;;;;;;;;;17.63;59.11;97534.88;2086376;28;19924;-65
2024/01/16 01:31:15;;;;;;;;;;;;;;;17.65;59.32;97548.06;2087975;28;20019;-65
2024/01/16 01:32:15;;;;;;;;;;;;;;;17.61;59.13;97542.31;2087016;28;20079;-65
2024/01/16 01:33:17;;;;;;;;;;;;;;;17.60;59.08;97547.91;2085896;28;20147;-65
2024/01/16 01:34:18;;;;;;;;;;;;;;;17.58;59.47;97541.97;2086427;28;19925;-66
2024/01/16 01:35:19;;;;;;;;;;;;;;;17.60;59.26;97551.41;2087095;28;19928;-66
2024/01/16 01:36:21;;;;;;;;;;;;;;;17.61;59.31;97547.69;2088286;28;20298;-66
2024/01/16 01:37:21;;;;;;;;;;;;;;;17.60;59.35;97553.25;2084682;28;19933;-65
2024/01/16 01:38:23;;;;;;;;;;;;;;;17.58;59.13;97558.88;2088313;28;19956;-65
2024/01/16 01:39:24;;;;;;;;;;;;;;;17.57;59.44;97554.53;2086877;28;19951;-65
2024/01/16 01:40:25;;;;;;;;;;;;;;;17.58;59.12;97558.88;2086126;28;20370;-65
2024/01/16 01:41:27;;;;;;;;;;;;;;;17.57;59.32;97557.22;2086507;28;19967;-66
2024/01/16 01:42:28;;;;;;;;;;;;;;;17.56;59.45;97558.25;2088338;28;19995;-66
2024/01/16 01:43:29;;;;;;;;;;;;;;;17.57;59.30;97567.13;2086637;28;19998;-65
2024/01/16 01:44:30;;;;;;;;;;;;;;;17.57;59.21;97562.56;2086592;28;19939;-65
2024/01/16 01:45:32;;;;;;;;;;;;;;;17.58;59.20;97560.72;2086704;28;19936;-66
2024/01/16 01:46:33;;;;;;;;;;;;;;;17.53;59.40;97561.38;2080830;28;20415;-65
2024/01/16 01:47:35;;;;;;;;;;;;;;;17.53;59.32;97565.94;2083846;28;20469;-66
2024/01/16 01:48:36;;;;;;;;;;;;;;;17.54;59.16;97571.06;2086070;28;19936;-66
2024/01/16 01:49:38;;;;;;;;;;;;;;;17.51;59.42;97568.81;2088157;28;20046;-66
2024/01/16 01:50:39;;;;;;;;;;;;;;;17.53;59.53;97580.16;2086916;28;19932;-65
2024/01/16 01:51:41;;;;;;;;;;;;;;;17.54;59.33;97576.41;2084431;28;20536;-66
2024/01/16 01:52:42;;;;;;;;;;;;;;;17.54;59.24;97573.75;2086176;28;19932;-65
2024/01/16 01:53:44;;;;;;;;;;;;;;;17.49;59.28;97570.09;2087908;28;20398;-65
2024/01/16 01:54:45;;;;;;;;;;;;;;;17.51;59.18;97576.88;2084139;28;20458;-66
2024/01/16 01:55:49;;;;;;;;;;;;;;;17.45;59.60;97575.09;2085370;28;19971;-66
2024/01/16 01:56:50;;;;;;;;;;;;;;;17.49;59.30;97567.41;2085010;28;19946;-66
2024/01/16 01:57:52;;;;;;;;;;;;;;;17.50;59.07;97572.56;2084118;28;19929;-65
2024/01/16 01:58:54;;;;;;;;;;;;;;;17.49;59.26;97572.78;2084644;28;19928;-66
2024/01/16 01:59:56;;;;;;;;;;;;;;;17.49;59.23;97573.59;2085579;28;19971;-65
2024/01/16 02:00:57;;;;;;;;;;;;;;;17.50;59.34;97577.91;2086708;28;19935;-65
2024/01/16 02:01:58;;;;;;;;;;;;;;;17.50;59.39;97577.91;2083513;28;19968;-66
2024/01/16 02:03:00;;;;;;;;;;;;;;;17.51;59.14;97579.53;2087528;28;20678;-66
2024/01/16 02:04:03;;;;;;;;;;;;;;;17.50;59.18;97575.25;2085792;28;20031;-66
2024/01/16 02:05:03;;;;;;;;;;;;;;;17.46;59.21;97584.75;2086676;28;20320;-65
2024/01/16 02:06:05;;;;;;;;;;;;;;;17.50;59.13;97582.47;2084215;28;19960;-65
2024/01/16 02:07:06;;;;;;;;;;;;;;;17.45;59.28;97585.00;2086205;28;19929;-66
2024/01/16 02:08:07;;;;;;;;;;;;;;;17.45;59.46;97585.81;2084792;28;19933;-66
2024/01/16 02:09:09;;;;;;;;;;;;;;;17.45;59.12;97583.13;2082609;28;19937;-66
2024/01/16 02:10:10;;;;;;;;;;;;;;;17.50;59.11;97583.28;2088760;28;19967;-66
2024/01/16 02:11:12;;;;;;;;;;;;;;;17.49;59.10;97583.50;2085165;28;19964;-65
2024/01/16 02:12:13;;;;;;;;;;;;;;;17.50;59.12;97585.97;2088379;28;19959;-66
2024/01/16 02:13:14;;;;;;;;;;;;;;;17.48;59.06;97590.72;2084494;28;20473;-66
2024/01/16 02:14:16;;;;;;;;;;;;;;;17.48;59.21;97590.72;2086930;28;19968;-66
2024/01/16 02:15:16;;;;;;;;;;;;;;;17.46;59.38;97587.44;2088135;28;19986;-66
2024/01/16 02:16:17;;;;;;;;;;;;;;;17.47;59.05;97583.72;2089205;28;20424;-66
2024/01/16 02:17:19;;;;;;;;;;;;;;;17.47;59.04;97589.09;2088399;28;19928;-66
2024/01/16 02:18:20;;;;;;;;;;;;;;;17.50;58.98;97591.31;2087835;28;19933;-65
2024/01/16 02:19:20;;;;;;;;;;;;;;;17.48;59.18;97590.72;2087961;28;19929;-65
2024/01/16 02:20:22;;;;;;;;;;;;;;;17.46;59.20;97589.28;2086399;28;19963;-66
2024/01/16 02:21:25;;;;;;;;;;;;;;;17.47;59.04;97594.44;2085884;28;19929;-66
2024/01/16 02:22:28;;;;;;;;;;;;;;;17.43;59.27;97588.69;2090111;28;19932;-66
2024/01/16 02:23:31;;;;;;;;;;;;;;;17.44;59.36;97589.53;2084641;28;19932;-66
2024/01/16 02:24:32;;;;;;;;;;;;;;;17.43;59.07;97583.34;2087966;28;20463;-66
2024/01/16 02:25:33;;;;;;;;;;;;;;;17.47;58.92;97590.94;2086114;28;20002;-66
2024/01/16 02:26:35;;;;;;;;;;;;;;;17.46;59.02;97592.78;2087746;28;19929;-66
2024/01/16 02:27:35;;;;;;;;;;;;;;;17.46;59.10;97582.06;2090420;28;19924;-66
2024/01/16 02:28:37;;;;;;;;;;;;;;;17.47;58.98;97589.09;2088716;28;19974;-65
2024/01/16 02:29:40;;;;;;;;;;;;;;;17.47;59.03;97583.72;2086150;28;19929;-66
2024/01/16 02:30:42;;;;;;;;;;;;;;;17.45;59.17;97585.81;2084143;28;19932;-66
2024/01/16 02:31:43;;;;;;;;;;;;;;;17.43;58.90;97587.88;2086732;28;20452;-66
2024/01/16 02:32:44;;;;;;;;;;;;;;;17.44;59.01;97589.53;2088374;28;19940;-65
2024/01/16 02:33:44;;;;;;;;;;;;;;;17.44;58.99;97589.53;2086920;28;20031;-66
2024/01/16 02:34:46;;;;;;;;;;;;;;;17.45;58.98;97598.41;2086232;28;19970;-66
2024/01/16 02:35:47;;;;;;;;;;;;;;;17.45;58.95;97585.81;2087709;28;19933;-66
2024/01/16 02:36:47;;;;;;;;;;;;;;;17.45;58.95;97591.16;2087641;28;20451;-66
2024/01/16 02:37:49;;;;;;;;;;;;;;;17.45;58.98;97593.03;2088511;28;19929;-65
2024/01/16 02:38:51;;;;;;;;;;;;;;;17.43;58.81;97593.25;2086908;28;19929;-66
2024/01/16 02:39:52;;;;;;;;;;;;;;;17.43;58.89;97595.91;2086642;28;19932;-65
2024/01/16 02:40:53;;;;;;;;;;;;;;;17.41;58.96;97595.31;2087550;28;19929;-66
2024/01/16 02:41:55;;;;;;;;;;;;;;;17.41;59.02;97603.34;2088408;28;20019;-65
2024/01/16 02:42:55;;;;;;;;;;;;;;;17.37;58.94;97597.63;2089691;28;19940;-66
2024/01/16 02:43:57;;;;;;;;;;;;;;;17.37;58.99;97600.31;2087777;28;20407;-65
2024/01/16 02:44:58;;;;;;;;;;;;;;;17.37;59.16;97596.81;2088216;28;19932;-66
2024/01/16 02:45:58;;;;;;;;;;;;;;;17.35;59.18;97596.19;2088209;28;20403;-66
2024/01/16 02:47:00;;;;;;;;;;;;;;;17.36;59.06;97603.22;2088476;28;19932;-66
2024/01/16 02:48:01;;;;;;;;;;;;;;;17.39;58.97;97600.91;2086380;28;20726;-66
2024/01/16 02:49:01;;;;;;;;;;;;;;;17.39;59.10;97598.22;2090042;28;19928;-66
2024/01/16 02:50:03;;;;;;;;;;;;;;;17.38;58.88;97595.75;2090830;28;20054;-66
2024/01/16 02:51:04;;;;;;;;;;;;;;;17.39;58.94;97597.41;2088830;28;19939;-66
2024/01/16 02:52:06;;;;;;;;;;;;;;;17.38;59.03;97590.41;2087859;28;20610;-65
2024/01/16 02:53:07;;;;;;;;;;;;;;;17.39;58.79;97597.41;2087532;28;19936;-66
2024/01/16 02:54:10;;;;;;;;;;;;;;;17.35;59.13;97597.00;2089079;28;19967;-65
2024/01/16 02:55:10;;;;;;;;;;;;;;;17.32;59.13;97596.66;2089530;28;19932;-65
2024/01/16 02:56:12;;;;;;;;;;;;;;;17.35;59.00;97604.25;2090324;28;20784;-65
2024/01/16 02:57:12;;;;;;;;;;;;;;;17.35;58.98;97597.00;2086273;28;19929;-65
2024/01/16 02:58:14;;;;;;;;;;;;;;;17.34;59.20;97597.25;2087023;28;20709;-65
2024/01/16 02:59:14;;;;;;;;;;;;;;;17.37;58.89;97599.50;2087936;28;20387;-66
2024/01/16 03:00:17;;;;;;;;;;;;;;;17.34;58.98;97597.25;2085755;28;20011;-66
2024/01/16 03:01:17;;;;;;;;;;;;;;;17.32;59.08;97592.09;2087418;28;19997;-66
2024/01/16 03:02:19;;;;;;;;;;;;;;;17.32;58.99;97600.13;2082468;28;19924;-66
2024/01/16 03:03:20;;;;;;;;;;;;;;;17.31;59.22;97592.34;2087197;28;20466;-65
2024/01/16 03:04:21;;;;;;;;;;;;;;;17.30;58.92;97602.25;2087145;28;19980;-66
2024/01/16 03:05:22;;;;;;;;;;;;;;;17.31;58.94;97595.84;2087770;28;19946;-65
2024/01/16 03:06:24;;;;;;;;;;;;;;;17.32;58.94;97600.13;2088263;28;20031;-66
2024/01/16 03:07:24;;;;;;;;;;;;;;;17.31;59.06;97598.50;2087199;28;19950;-66
2024/01/16 03:08:25;;;;;;;;;;;;;;;17.32;58.90;97597.47;2085497;28;20015;-66
2024/01/16 03:09:28;;;;;;;;;;;;;;;17.28;59.06;97601.63;2083711;28;19929;-65
2024/01/16 03:10:29;;;;;;;;;;;;;;;17.27;59.09;97601.84;2083356;28;19928;-66
2024/01/16 03:11:32;;;;;;;;;;;;;;;17.29;59.05;97599.75;2085459;28;20426;-66
2024/01/16 03:12:33;;;;;;;;;;;;;;;17.27;59.07;97601.84;2087351;28;20016;-66
2024/01/16 03:13:35;;;;;;;;;;;;;;;17.26;59.27;97600.22;2084980;28;20493;-65
2024/01/16 03:14:36;;;;;;;;;;;;;;;17.26;59.05;97597.53;2086367;28;19988;-65
2024/01/16 03:15:38;;;;;;;;;;;;;;;17.25;58.99;97603.94;2086710;28;20040;-65
2024/01/16 03:16:38;;;;;;;;;;;;;;;17.26;59.01;97613.59;2085180;28;20021;-66
2024/01/16 03:17:40;;;;;;;;;;;;;;;17.29;59.16;97607.81;2086713;28;19972;-66
2024/01/16 03:18:41;;;;;;;;;;;;;;;17.27;59.06;97605.34;2084812;28;20031;-65
2024/01/16 03:19:43;;;;;;;;;;;;;;;17.29;58.81;97610.50;2087952;28;19929;-66
2024/01/16 03:20:44;;;;;;;;;;;;;;;17.27;59.02;97613.38;2086649;28;19989;-66
2024/01/16 03:21:45;;;;;;;;;;;;;;;17.28;59.07;97611.53;2086796;28;19978;-66
2024/01/16 03:22:46;;;;;;;;;;;;;;;17.27;58.98;97620.59;2087923;28;20079;-65
2024/01/16 03:23:47;;;;;;;;;;;;;;;17.24;59.01;97621.84;2088224;28;19974;-66
2024/01/16 03:24:50;;;;;;;;;;;;;;;17.23;59.04;97619.41;2089107;28;20500;-65
2024/01/16 03:25:51;;;;;;;;;;;;;;;17.21;59.07;97627.66;2085527;28;19933;-66
2024/01/16 03:26:53;;;;;;;;;;;;;;;17.25;59.06;97623.50;2086987;28;19998;-66
2024/01/16 03:27:54;;;;;;;;;;;;;;;17.26;58.68;97627.00;2084820;28;19929;-65
2024/01/16 03:28:55;;;;;;;;;;;;;;;17.25;58.86;97623.50;2088620;28;19928;-65
2024/01/16 03:29:56;;;;;;;;;;;;;;;17.26;58.90;97621.66;2084896;28;19940;-66
2024/01/16 03:30:57;;;;;;;;;;;;;;;17.23;59.19;97624.78;2088033;28;20601;-66
2024/01/16 03:31:58;;;;;;;;;;;;;;;17.22;58.94;97626.63;2088589;28;19940;-65
2024/01/16 03:32:59;;;;;;;;;;;;;;;17.24;58.96;97621.84;2087615;28;20119;-65
2024/01/16 03:34:01;;;;;;;;;;;;;;;17.22;59.12;97626.63;2085459;28;19931;-66
2024/01/16 03:35:02;;;;;;;;;;;;;;;17.22;59.03;97623.09;2086414;28;19939;-66
2024/01/16 03:36:05;;;;;;;;;;;;;;;17.20;59.11;97624.16;2085291;28;19929;-66
2024/01/16 03:37:05;;;;;;;;;;;;;;;17.22;58.86;97629.31;2082485;28;19928;-66
2024/01/16 03:38:07;;;;;;;;;;;;;;;17.23;58.91;97627.44;2087225;28;20395;-66
2024/01/16 03:39:08;;;;;;;;;;;;;;;17.23;58.96;97630.13;2087682;28;19928;-65
2024/01/16 03:40:13;;;;;;;;;;;;;;;17.20;59.05;97637.56;2088650;28;19925;-66
2024/01/16 03:41:13;;;;;;;;;;;;;;;17.15;59.05;97634.72;2085857;28;19925;-66
2024/01/16 03:42:15;;;;;;;;;;;;;;;17.17;59.18;97638.00;2090588;28;20014;-65
2024/01/16 03:43:16;;;;;;;;;;;;;;;17.21;59.01;97635.69;2085321;28;20000;-66
2024/01/16 03:44:17;;;;;;;;;;;;;;;17.20;58.94;97636.75;2086953;28;19928;-65
2024/01/16 03:45:18;;;;;;;;;;;;;;;17.18;59.15;97638.81;2085617;28;19928;-66
2024/01/16 03:46:20;;;;;;;;;;;;;;;17.17;58.80;97627.28;2084211;28;20019;-63
2024/01/16 03:47:20;;;;;;;;;;;;;;;17.17;59.10;97629.16;2086653;28;20613;-66
2024/01/16 03:48:22;;;;;;;;;;;;;;;17.15;58.95;97634.72;2088144;28;20015;-65
2024/01/16 03:49:22;;;;;;;;;;;;;;;17.13;59.01;97635.97;2088164;28;20023;-66
2024/01/16 03:50:23;;;;;;;;;;;;;;;17.13;59.13;97630.59;2086999;28;22191;-66
2024/01/16 03:51:24;;;;;;;;;;;;;;;17.13;59.06;97634.13;2084203;28;19936;-65
2024/01/16 03:52:25;;;;;;;;;;;;;;;17.15;59.07;97636.56;2088707;28;19932;-66
2024/01/16 03:53:27;;;;;;;;;;;;;;;17.17;59.07;97637.19;2084974;28;19964;-66
2024/01/16 03:54:27;;;;;;;;;;;;;;;17.16;58.98;97641.72;2087454;28;20452;-66
2024/01/16 03:55:31;;;;;;;;;;;;;;;17.15;59.00;97639.25;2085282;28;19932;-65
2024/01/16 03:56:31;;;;;;;;;;;;;;;17.17;58.84;97643.34;2087031;28;20409;-66
2024/01/16 03:57:32;;;;;;;;;;;;;;;17.13;59.01;97641.31;2084636;28;19939;-66
2024/01/16 03:58:34;;;;;;;;;;;;;;;17.13;59.16;97644.00;2088435;28;19936;-66
2024/01/16 03:59:36;;;;;;;;;;;;;;;17.09;59.04;97646.31;2085874;28;19932;-65
2024/01/16 04:00:38;;;;;;;;;;;;;;;17.10;59.01;97642.56;2084919;28;19932;-65
2024/01/16 04:01:38;;;;;;;;;;;;;;;17.10;59.22;97653.28;2087666;28;19939;-65
2024/01/16 04:02:40;;;;;;;;;;;;;;;17.10;58.91;97649.81;2087557;28;20047;-66
2024/01/16 04:03:41;;;;;;;;;;;;;;;17.08;59.12;97652.72;2083670;28;19939;-66
2024/01/16 04:04:42;;;;;;;;;;;;;;;17.09;59.02;97648.97;2086933;28;20443;-65
2024/01/16 04:05:43;;;;;;;;;;;;;;;17.07;59.07;97652.91;2084638;28;19940;-66
2024/01/16 04:06:44;;;;;;;;;;;;;;;17.07;59.05;97656.41;2086137;28;20997;-65
2024/01/16 04:07:45;;;;;;;;;;;;;;;17.02;59.16;97655.41;2084555;28;19929;-66
2024/01/16 04:08:45;;;;;;;;;;;;;;;17.00;59.20;97652.16;2086400;28;19928;-66
2024/01/16 04:09:47;;;;;;;;;;;;;;;17.00;59.34;97654.84;2085234;28;19933;-65
2024/01/16 04:10:49;;;;;;;;;;;;;;;17.04;59.20;97650.69;2087328;28;20515;-65
2024/01/16 04:11:51;;;;;;;;;;;;;;;17.05;59.15;97657.66;2084532;28;20016;-66
2024/01/16 04:12:51;;;;;;;;;;;;;;;17.07;59.07;97650.22;2086881;28;20482;-65
2024/01/16 04:13:53;;;;;;;;;;;;;;;17.10;58.93;97649.81;2081848;28;20055;-65
2024/01/16 04:14:53;;;;;;;;;;;;;;;17.13;58.70;97647.53;2085057;28;20483;-66
2024/01/16 04:15:55;;;;;;;;;;;;;;;17.20;58.63;97653.63;2085593;28;20020;-66
2024/01/16 04:16:56;;;;;;;;;;;;;;;17.25;58.78;97641.47;2082996;28;20384;-66
2024/01/16 04:17:57;;;;;;;;;;;;;;;17.31;58.68;97649.44;2085052;28;20016;-65
2024/01/16 04:18:58;;;;;;;;;;;;;;;17.37;58.61;97650.41;2084134;28;20004;-66
2024/01/16 04:19:59;;;;;;;;;;;;;;;17.37;58.54;97651.22;2085598;28;20205;-65
2024/01/16 04:21:00;;;;;;;;;;;;;;;17.41;58.56;97654.28;2084863;28;20376;-66
2024/01/16 04:22:02;;;;;;;;;;;;;;;17.43;58.40;97646.84;2084729;28;20127;-66
2024/01/16 04:23:02;;;;;;;;;;;;;;;17.43;58.55;97647.66;2086220;28;19925;-66
2024/01/16 04:24:04;;;;;;;;;;;;;;;17.46;58.48;97651.78;2087076;28;20015;-66
2024/01/16 04:25:05;;;;;;;;;;;;;;;17.50;58.58;97652.97;2084944;28;19932;-67
2024/01/16 04:26:08;;;;;;;;;;;;;;;17.53;58.35;97651.72;2083187;28;20028;-66
2024/01/16 04:27:11;;;;;;;;;;;;;;;17.54;58.29;97659.53;2085980;28;19978;-66
2024/01/16 04:28:12;;;;;;;;;;;;;;;17.56;58.60;97659.31;2084703;28;20342;-66
2024/01/16 04:29:14;;;;;;;;;;;;;;;17.58;58.39;97654.56;2086120;28;19935;-66
2024/01/16 04:30:15;;;;;;;;;;;;;;;17.59;58.47;97654.34;2083793;28;19928;-66
2024/01/16 04:31:17;;;;;;;;;;;;;;;17.62;58.24;97664.63;2086731;28;19936;-66
2024/01/16 04:32:19;;;;;;;;;;;;;;;17.64;58.13;97656.38;2082090;28;19936;-65
2024/01/16 04:33:19;;;;;;;;;;;;;;;17.67;58.47;97655.09;2083995;28;19929;-65
2024/01/16 04:34:21;;;;;;;;;;;;;;;17.68;58.40;97664.78;2087150;28;19967;-65
2024/01/16 04:35:22;;;;;;;;;;;;;;;17.69;58.47;97661.88;2080305;28;20520;-65
2024/01/16 04:36:23;;;;;;;;;;;;;;;17.71;58.29;97664.34;2086385;28;20027;-65
2024/01/16 04:37:24;;;;;;;;;;;;;;;17.74;58.38;97663.88;2083523;28;19932;-65
2024/01/16 04:38:25;;;;;;;;;;;;;;;17.74;58.21;97663.88;2084917;28;20015;-66
2024/01/16 04:39:26;;;;;;;;;;;;;;;17.76;58.42;97656.44;2083225;28;19990;-66
2024/01/16 04:40:27;;;;;;;;;;;;;;;17.80;58.15;97663.03;2086511;28;20293;-66
2024/01/16 04:41:30;;;;;;;;;;;;;;;17.81;58.21;97670.06;2084969;28;19938;-66
2024/01/16 04:42:30;;;;;;;;;;;;;;;17.83;58.33;97657.25;2085221;28;20509;-66
2024/01/16 04:43:32;;;;;;;;;;;;;;;17.86;58.36;97664.84;2086101;28;20027;-66
2024/01/16 04:44:33;;;;;;;;;;;;;;;17.86;58.18;97660.28;2085731;28;19939;-66
2024/01/16 04:45:34;;;;;;;;;;;;;;;17.88;58.17;97665.41;2085281;28;19935;-65
2024/01/16 04:46:35;;;;;;;;;;;;;;;17.90;58.14;97666.03;2085496;28;19928;-67
2024/01/16 04:47:37;;;;;;;;;;;;;;;17.92;58.13;97665.81;2083371;28;19933;-66
2024/01/16 04:48:37;;;;;;;;;;;;;;;17.93;58.31;97668.25;2083346;28;20437;-66
2024/01/16 04:49:40;;;;;;;;;;;;;;;17.95;58.12;97674.22;2084290;28;22306;-66
2024/01/16 04:50:41;;;;;;;;;;;;;;;17.97;58.19;97672.16;2084597;28;20015;-66
2024/01/16 04:51:42;;;;;;;;;;;;;;;17.99;58.13;97671.91;2083828;28;19928;-65
2024/01/16 04:52:43;;;;;;;;;;;;;;;18.00;58.38;97671.72;2086012;28;20002;-65
2024/01/16 04:53:43;;;;;;;;;;;;;;;18.02;58.35;97672.28;2083589;28;19933;-66
2024/01/16 04:54:45;;;;;;;;;;;;;;;18.04;58.06;97674.75;2086319;28;20086;-66
2024/01/16 04:55:46;;;;;;;;;;;;;;;18.05;58.11;97677.22;2084948;28;19936;-65
2024/01/16 04:56:49;;;;;;;;;;;;;;;18.06;58.19;97681.53;2087944;28;22324;-65
2024/01/16 04:57:50;;;;;;;;;;;;;;;18.08;58.22;97689.38;2085084;28;19935;-65
2024/01/16 04:58:52;;;;;;;;;;;;;;;18.11;58.22;97688.09;2086834;28;20311;-66
2024/01/16 04:59:52;;;;;;;;;;;;;;;18.12;58.03;97679.84;2085038;28;19998;-66
2024/01/16 05:00:54;;;;;;;;;;;;;;;18.15;58.17;97683.94;2086263;28;20391;-65
2024/01/16 05:01:55;;;;;;;;;;;;;;;18.16;57.92;97682.88;2084407;28;20315;-66
2024/01/16 05:02:56;;;;;;;;;;;;;;;18.16;58.09;97682.88;2085737;28;20015;-65
2024/01/16 05:03:57;;;;;;;;;;;;;;;18.18;58.12;97681.63;2084746;28;19932;-65
2024/01/16 05:04:57;;;;;;;;;;;;;;;18.20;58.24;97681.41;2085900;28;20063;-66
2024/01/16 05:06:00;;;;;;;;;;;;;;;18.22;58.11;97681.97;2084870;28;19986;-65
2024/01/16 05:07:01;;;;;;;;;;;;;;;18.22;58.01;97677.47;2081800;28;20015;-66
2024/01/16 05:08:02;;;;;;;;;;;;;;;18.23;58.25;97683.63;2083642;28;19932;-66
2024/01/16 05:09:04;;;;;;;;;;;;;;;18.25;58.16;97689.63;2085687;28;19928;-65
2024/01/16 05:10:06;;;;;;;;;;;;;;;18.25;58.04;97690.44;2083272;28;20015;-66
2024/01/16 05:11:06;;;;;;;;;;;;;;;18.26;57.91;97693.91;2086440;28;19929;-66
2024/01/16 05:12:09;;;;;;;;;;;;;;;18.27;57.95;97698.22;2086396;28;19981;-66
2024/01/16 05:13:12;;;;;;;;;;;;;;;18.27;57.86;97690.19;2082688;28;19933;-66
2024/01/16 05:14:13;;;;;;;;;;;;;;;18.26;57.80;97692.06;2085589;28;19986;-66
2024/01/16 05:15:14;;;;;;;;;;;;;;;18.27;57.88;97690.19;2085211;28;19928;-65
2024/01/16 05:16:16;;;;;;;;;;;;;;;18.28;57.89;97687.28;2084185;28;20411;-66
2024/01/16 05:17:16;;;;;;;;;;;;;;;18.28;58.31;97686.47;2083827;28;20355;-66
2024/01/16 05:18:19;;;;;;;;;;;;;;;18.28;58.25;97694.53;2081510;28;19934;-66
2024/01/16 05:19:19;;;;;;;;;;;;;;;18.28;58.14;97695.34;2090765;28;19969;-65